createdAt,value
2018-04-24T00:00:29.395Z,57.10
2018-04-24T00:02:57.047Z,57.52
2018-04-24T00:05:24.716Z,57.47
2018-04-24T00:07:52.362Z,57.72
2018-04-24T00:10:19.971Z,58.06
2018-04-24T00:12:47.678Z,58.02
2018-04-24T00:15:15.307Z,57.65
2018-04-24T00:17:42.974Z,57.68
2018-04-24T00:20:10.584Z,57.42
2018-04-24T00:22:38.252Z,57.23
2018-04-24T00:25:05.883Z,57.83
2018-04-24T00:27:33.583Z,57.81
2018-04-24T00:30:01.221Z,58.75
2018-04-24T00:32:28.903Z,58.27
2018-04-24T00:34:56.518Z,58.43
2018-04-24T00:37:24.190Z,58.38
2018-04-24T00:39:51.807Z,58.68
2018-04-24T00:42:19.500Z,58.76
2018-04-24T00:44:47.111Z,58.85
2018-04-24T00:47:14.723Z,58.88
2018-04-24T00:49:42.423Z,58.94
2018-04-24T00:52:10.054Z,58.85
2018-04-24T00:54:37.699Z,58.38
2018-04-24T00:57:05.338Z,58.65
2018-04-24T00:59:33.049Z,58.54
2018-04-24T01:02:00.666Z,58.83
2018-04-24T01:04:28.339Z,60.44
2018-04-24T01:06:56.003Z,61.59
2018-04-24T01:09:23.653Z,61.71
2018-04-24T01:11:51.269Z,61.31
2018-04-24T01:14:18.922Z,60.00
2018-04-24T01:16:46.531Z,59.14
2018-04-24T01:19:14.202Z,59.71
2018-04-24T01:21:41.835Z,59.96
2018-04-24T01:24:09.517Z,61.76
2018-04-24T01:26:37.127Z,62.81
2018-04-24T01:29:04.806Z,62.22
2018-04-24T01:31:32.432Z,61.79
2018-04-24T01:34:00.098Z,61.21
2018-04-24T01:36:27.710Z,61.82
2018-04-24T01:38:55.366Z,61.74
2018-04-24T01:41:23.000Z,62.08
2018-04-24T01:43:50.673Z,62.35
2018-04-24T01:46:18.326Z,61.73
2018-04-24T01:48:45.971Z,61.84
2018-04-24T01:51:13.726Z,62.62
2018-04-24T01:53:41.335Z,62.28
2018-04-24T01:56:08.983Z,62.16
2018-04-24T01:58:36.618Z,62.11
2018-04-24T02:01:04.283Z,61.96
2018-04-24T02:03:32.023Z,61.50
2018-04-24T02:05:59.703Z,61.87
2018-04-24T02:08:27.338Z,62.35
2018-04-24T02:10:55.029Z,62.45
2018-04-24T02:13:22.646Z,62.32
2018-04-24T02:15:50.303Z,61.79
2018-04-24T02:18:17.928Z,63.51
2018-04-24T02:20:45.588Z,63.38
2018-04-24T02:23:13.211Z,62.91
2018-04-24T02:25:40.887Z,62.73
2018-04-24T02:28:08.505Z,63.11
2018-04-24T02:30:36.179Z,62.86
2018-04-24T02:33:03.801Z,63.08
2018-04-24T02:35:31.472Z,63.71
2018-04-24T02:37:59.102Z,65.95
2018-04-24T02:40:26.793Z,65.75
2018-04-24T02:42:54.425Z,64.93
2018-04-24T02:45:22.031Z,64.29
2018-04-24T02:47:49.683Z,64.43
2018-04-24T02:50:17.299Z,63.59
2018-04-24T02:52:44.943Z,63.79
2018-04-24T02:55:12.580Z,64.62
2018-04-24T02:57:40.256Z,66.00
2018-04-24T03:00:07.911Z,67.14
2018-04-24T03:02:35.598Z,65.85
2018-04-24T03:05:03.231Z,65.86
2018-04-24T03:07:30.896Z,65.44
2018-04-24T03:09:58.515Z,65.15
2018-04-24T03:12:26.188Z,64.96
2018-04-24T03:14:53.827Z,65.15
2018-04-24T03:17:21.495Z,65.38
2018-04-24T03:19:49.116Z,65.59
2018-04-24T03:22:16.766Z,64.91
2018-04-24T03:24:44.379Z,64.15
2018-04-24T03:27:12.041Z,65.10
2018-04-24T03:29:39.658Z,64.94
2018-04-24T03:32:07.327Z,64.59
2018-04-24T03:34:34.972Z,64.33
2018-04-24T03:37:02.675Z,64.38
2018-04-24T03:39:30.295Z,64.17
2018-04-24T03:41:57.948Z,64.51
2018-04-24T03:44:25.591Z,64.43
2018-04-24T03:46:53.283Z,65.82
2018-04-24T03:49:20.970Z,65.88
2018-04-24T03:51:48.594Z,66.18
2018-04-24T03:54:16.198Z,66.12
2018-04-24T03:56:43.858Z,66.69
2018-04-24T03:59:11.481Z,69.74
2018-04-24T04:01:39.149Z,68.06
2018-04-24T04:04:07.100Z,67.53
2018-04-24T04:06:34.767Z,67.03
2018-04-24T04:09:02.387Z,66.54
2018-04-24T04:11:30.137Z,66.11
2018-04-24T04:13:57.805Z,65.87
2018-04-24T04:16:25.492Z,66.24
2018-04-24T04:19:05.072Z,65.67
2018-04-24T04:21:44.416Z,67.30
2018-04-24T04:24:23.968Z,67.22
2018-04-24T04:26:51.813Z,66.84
2018-04-24T04:29:19.474Z,66.83
2018-04-24T04:31:47.138Z,66.95
2018-04-24T04:34:14.767Z,66.26
2018-04-24T04:36:42.543Z,66.72
2018-04-24T04:39:10.343Z,66.74
2018-04-24T04:41:38.030Z,66.56
2018-04-24T04:44:05.630Z,67.12
2018-04-24T04:46:33.448Z,66.50
2018-04-24T04:49:01.209Z,65.16
2018-04-24T04:51:29.089Z,64.01
2018-04-24T04:53:56.892Z,64.93
2018-04-24T04:56:24.606Z,65.61
2018-04-24T04:58:52.784Z,64.17
2018-04-24T05:01:20.545Z,63.71
2018-04-24T05:03:48.303Z,63.45
2018-04-24T05:06:15.927Z,66.27
2018-04-24T05:08:43.583Z,62.69
2018-04-24T05:11:11.204Z,61.55
2018-04-24T05:13:38.862Z,62.52
2018-04-24T05:16:06.479Z,63.14
2018-04-24T05:18:34.179Z,63.87
2018-04-24T05:21:01.851Z,63.82
2018-04-24T05:23:29.514Z,62.68
2018-04-24T05:25:57.171Z,61.49
2018-04-24T05:28:24.860Z,60.75
2018-04-24T05:30:52.718Z,59.22
2018-04-24T05:33:20.371Z,59.21
2018-04-24T05:35:48.267Z,60.96
2018-04-24T05:38:15.922Z,61.20
2018-04-24T05:40:43.598Z,62.12
2018-04-24T05:43:11.310Z,61.96
2018-04-24T05:45:39.061Z,61.23
2018-04-24T05:48:07.055Z,59.97
2018-04-24T05:50:34.952Z,61.00
2018-04-24T05:53:03.195Z,59.59
2018-04-24T05:55:31.058Z,59.51
2018-04-24T05:57:58.914Z,58.38
2018-04-24T06:00:26.760Z,59.49
2018-04-24T06:02:54.637Z,59.65
2018-04-24T06:05:22.262Z,60.44
2018-04-24T06:07:50.202Z,60.04
2018-04-24T06:10:17.841Z,59.29
2018-04-24T06:12:45.561Z,57.85
2018-04-24T06:15:13.699Z,56.71
2018-04-24T06:17:41.722Z,58.19
2018-04-24T06:20:09.327Z,57.11
2018-04-24T06:22:37.082Z,54.42
2018-04-24T06:25:04.767Z,54.92
2018-04-24T06:27:32.462Z,54.12
2018-04-24T06:30:00.135Z,53.46
2018-04-24T06:32:27.887Z,53.71
2018-04-24T06:34:55.491Z,52.92
2018-04-24T06:37:23.146Z,51.38
2018-04-24T06:39:50.775Z,53.22
2018-04-24T06:42:18.445Z,50.86
2018-04-24T06:44:46.056Z,50.33
2018-04-24T06:47:13.720Z,51.17
2018-04-24T06:49:41.343Z,51.60
2018-04-24T06:52:09.011Z,54.00
2018-04-24T06:54:36.717Z,54.78
2018-04-24T06:57:04.335Z,52.86
2018-04-24T06:59:32.024Z,54.89
2018-04-24T07:01:59.641Z,53.05
2018-04-24T07:04:27.324Z,56.68
2018-04-24T07:06:54.926Z,54.35
2018-04-24T07:09:22.585Z,54.69
2018-04-24T07:11:50.238Z,54.14
2018-04-24T07:14:17.908Z,53.12
2018-04-24T07:16:45.534Z,50.03
2018-04-24T07:19:13.198Z,48.21
2018-04-24T07:21:40.819Z,49.07
2018-04-24T07:24:08.490Z,48.70
2018-04-24T07:26:36.110Z,48.64
2018-04-24T07:29:03.770Z,48.19
2018-04-24T07:31:31.388Z,49.10
2018-04-24T07:33:59.051Z,46.75
2018-04-24T07:36:26.669Z,49.30
2018-04-24T07:38:54.332Z,48.59
2018-04-24T07:41:21.948Z,47.51
2018-04-24T07:43:49.597Z,45.89
2018-04-24T07:46:17.213Z,46.53
2018-04-24T07:48:44.854Z,44.02
2018-04-24T07:51:12.491Z,44.42
2018-04-24T07:53:40.150Z,44.87
2018-04-24T07:56:07.751Z,44.80
2018-04-24T07:58:35.400Z,44.48
2018-04-24T08:01:03.018Z,44.29
2018-04-24T08:03:30.689Z,42.41
2018-04-24T08:05:58.307Z,42.87
2018-04-24T08:08:25.965Z,42.36
2018-04-24T08:10:53.583Z,40.53
2018-04-24T08:13:21.264Z,41.18
2018-04-24T08:15:48.888Z,42.48
2018-04-24T08:18:16.543Z,40.70
2018-04-24T08:20:44.203Z,40.33
2018-04-24T08:23:11.868Z,39.34
2018-04-24T08:25:39.496Z,36.98
2018-04-24T08:28:07.162Z,35.68
2018-04-24T08:30:34.823Z,36.29
2018-04-24T08:33:02.490Z,35.20
2018-04-24T08:35:30.142Z,35.39
2018-04-24T08:37:57.791Z,36.42
2018-04-24T08:40:25.441Z,36.07
2018-04-24T08:42:53.873Z,34.99
2018-04-24T08:45:21.488Z,35.43
2018-04-24T08:47:49.196Z,33.08
2018-04-24T08:50:16.836Z,32.34
2018-04-24T08:52:44.499Z,31.80
2018-04-24T08:55:12.151Z,31.96
2018-04-24T08:57:39.781Z,35.31
2018-04-24T09:00:07.446Z,32.61
2018-04-24T09:02:35.169Z,32.83
2018-04-24T09:05:03.042Z,32.53
2018-04-24T09:07:30.705Z,32.04
2018-04-24T09:09:58.471Z,32.29
2018-04-24T09:12:26.152Z,32.07
2018-04-24T09:14:53.801Z,31.87
2018-04-24T09:17:21.457Z,31.35
2018-04-24T09:19:49.135Z,30.45
2018-04-24T09:22:16.751Z,31.06
2018-04-24T09:24:44.394Z,30.21
2018-04-24T09:27:12.012Z,29.82
2018-04-24T09:29:39.790Z,31.12
2018-04-24T09:32:07.422Z,31.37
2018-04-24T09:34:35.147Z,29.65
2018-04-24T09:37:02.769Z,28.58
2018-04-24T09:39:30.426Z,28.67
2018-04-24T09:41:58.093Z,29.14
2018-04-24T09:44:25.756Z,27.19
2018-04-24T09:46:53.518Z,24.61
2018-04-24T09:49:21.164Z,25.42
2018-04-24T09:51:48.775Z,26.24
2018-04-24T09:54:16.449Z,26.25
2018-04-24T09:56:44.144Z,26.15
2018-04-24T09:59:11.768Z,25.39
2018-04-24T10:01:39.385Z,27.11
2018-04-24T10:04:07.045Z,25.91
2018-04-24T10:06:34.675Z,25.67
2018-04-24T10:09:02.327Z,26.92
2018-04-24T10:11:29.989Z,26.07
2018-04-24T10:13:57.641Z,25.75
2018-04-24T10:16:25.272Z,23.79
2018-04-24T10:18:52.930Z,25.28
2018-04-24T10:21:20.598Z,25.65
2018-04-24T10:23:48.251Z,24.50
2018-04-24T10:26:15.916Z,25.20
2018-04-24T10:28:43.762Z,24.76
2018-04-24T10:31:11.425Z,24.68
2018-04-24T10:33:39.080Z,24.95
2018-04-24T10:36:06.759Z,24.56
2018-04-24T10:38:34.553Z,24.27
2018-04-24T10:41:02.268Z,22.78
2018-04-24T10:43:30.079Z,22.77
2018-04-24T10:45:57.804Z,22.41
2018-04-24T10:48:25.508Z,23.94
2018-04-24T10:50:53.345Z,21.34
2018-04-24T10:53:21.082Z,22.25
2018-04-24T10:55:48.902Z,21.97
2018-04-24T10:58:16.771Z,21.47
2018-04-24T11:00:44.563Z,20.40
2018-04-24T11:03:13.421Z,20.92
2018-04-24T11:05:42.432Z,20.58
2018-04-24T11:08:11.590Z,19.78
2018-04-24T11:10:40.409Z,20.04
2018-04-24T11:13:09.262Z,20.58
2018-04-24T11:15:37.059Z,20.37
2018-04-24T11:18:04.823Z,20.41
2018-04-24T11:20:32.691Z,20.07
2018-04-24T11:23:00.417Z,19.75
2018-04-24T11:25:28.220Z,19.87
2018-04-24T11:27:55.986Z,20.60
2018-04-24T11:30:23.776Z,21.76
2018-04-24T11:32:51.516Z,20.99
2018-04-24T11:35:19.382Z,19.98
2018-04-24T11:37:47.043Z,19.13
2018-04-24T11:40:14.911Z,19.43
2018-04-24T11:42:42.676Z,20.20
2018-04-24T11:45:10.451Z,20.83
2018-04-24T11:47:38.307Z,19.71
2018-04-24T11:50:06.124Z,19.81
2018-04-24T11:52:33.835Z,19.73
2018-04-24T11:55:01.810Z,19.68
2018-04-24T11:57:29.463Z,18.75
2018-04-24T11:59:57.119Z,19.34
2018-04-24T12:02:24.788Z,18.78
2018-04-24T12:04:52.551Z,18.95
2018-04-24T12:07:20.321Z,19.50
2018-04-24T12:09:48.187Z,19.45
2018-04-24T12:12:15.847Z,18.64
2018-04-24T12:14:43.719Z,18.68
2018-04-24T12:17:11.480Z,17.79
2018-04-24T12:19:39.358Z,19.12
2018-04-24T12:22:07.072Z,18.62
2018-04-24T12:24:34.942Z,18.64
2018-04-24T12:27:02.741Z,17.21
2018-04-24T12:29:30.608Z,17.02
2018-04-24T12:31:58.274Z,17.87
2018-04-24T12:34:26.142Z,17.29
2018-04-24T12:36:53.851Z,17.65
2018-04-24T12:39:21.674Z,18.51
2018-04-24T12:41:49.329Z,19.01
2018-04-24T12:44:17.095Z,19.69
2018-04-24T12:46:45.883Z,19.61
2018-04-24T12:49:13.529Z,19.88
2018-04-24T12:51:41.179Z,19.70
2018-04-24T12:54:08.868Z,20.13
2018-04-24T12:56:36.485Z,21.14
2018-04-24T12:59:04.188Z,21.62
2018-04-24T13:01:31.810Z,20.41
2018-04-24T13:03:59.460Z,21.15
2018-04-24T13:06:27.081Z,21.13
2018-04-24T13:08:54.739Z,21.47
2018-04-24T13:11:22.359Z,22.55
2018-04-24T13:13:50.014Z,22.22
2018-04-24T13:16:17.632Z,23.00
2018-04-24T13:18:45.291Z,23.24
2018-04-24T13:21:12.894Z,22.62
2018-04-24T13:23:40.499Z,23.78
2018-04-24T13:26:08.160Z,23.39
2018-04-24T13:28:35.770Z,22.60
2018-04-24T13:31:03.432Z,23.14
2018-04-24T13:33:31.070Z,22.66
2018-04-24T13:35:58.731Z,22.65
2018-04-24T13:38:26.366Z,22.59
2018-04-24T13:40:54.018Z,22.08
2018-04-24T13:43:21.651Z,22.84
2018-04-24T13:45:49.311Z,21.76
2018-04-24T13:48:16.930Z,22.28
2018-04-24T13:50:44.590Z,22.61
2018-04-24T13:53:12.215Z,22.76
2018-04-24T13:55:39.872Z,22.52
2018-04-24T13:58:07.501Z,22.62
2018-04-24T14:00:35.146Z,23.08
2018-04-24T14:03:02.756Z,23.37
2018-04-24T14:05:30.407Z,23.30
2018-04-24T14:07:58.032Z,23.05
2018-04-24T14:10:25.682Z,23.17
2018-04-24T14:12:53.309Z,23.47
2018-04-24T14:15:20.999Z,24.14
2018-04-24T14:17:48.611Z,23.24
2018-04-24T14:20:16.270Z,24.40
2018-04-24T14:22:43.919Z,24.88
2018-04-24T14:25:11.568Z,25.31
2018-04-24T14:27:39.222Z,25.07
2018-04-24T14:30:06.876Z,24.78
2018-04-24T14:32:34.479Z,24.53
2018-04-24T14:35:02.148Z,23.79
2018-04-24T14:37:29.758Z,24.41
2018-04-24T14:39:57.411Z,24.52
2018-04-24T14:42:25.033Z,24.11
2018-04-24T14:44:52.688Z,24.49
2018-04-24T14:47:20.301Z,25.76
2018-04-24T14:49:47.950Z,26.49
2018-04-24T14:52:15.557Z,26.36
2018-04-24T14:54:43.215Z,26.24
2018-04-24T14:57:10.839Z,26.10
2018-04-24T14:59:38.490Z,26.26
2018-04-24T15:02:06.136Z,26.51
2018-04-24T15:04:33.787Z,26.35
2018-04-24T15:07:01.402Z,26.74
2018-04-24T15:09:29.059Z,27.15
2018-04-24T15:11:56.714Z,27.11
2018-04-24T15:14:24.353Z,27.29
2018-04-24T15:16:51.964Z,28.52
2018-04-24T15:19:19.615Z,28.64
2018-04-24T15:21:47.224Z,28.37
2018-04-24T15:24:14.885Z,28.00
2018-04-24T15:26:42.496Z,27.66
2018-04-24T15:29:10.107Z,28.12
2018-04-24T15:31:37.771Z,28.10
2018-04-24T15:34:05.384Z,28.37
2018-04-24T15:36:33.039Z,28.09
2018-04-24T15:39:00.684Z,28.95
2018-04-24T15:41:28.338Z,28.84
2018-04-24T15:43:55.933Z,28.66
2018-04-24T15:46:23.582Z,28.64
2018-04-24T15:48:51.194Z,29.08
2018-04-24T15:51:18.843Z,28.62
2018-04-24T15:53:46.450Z,28.65
2018-04-24T15:56:14.100Z,29.35
2018-04-24T15:58:41.710Z,29.26
2018-04-24T16:01:09.355Z,29.23
2018-04-24T16:03:36.967Z,29.52
2018-04-24T16:06:04.646Z,28.92
2018-04-24T16:08:32.250Z,28.98
2018-04-24T16:10:59.894Z,29.43
2018-04-24T16:13:27.507Z,29.76
2018-04-24T16:15:55.162Z,29.54
2018-04-24T16:18:22.771Z,30.00
2018-04-24T16:20:50.419Z,29.97
2018-04-24T16:23:18.031Z,29.72
2018-04-24T16:25:45.686Z,30.01
2018-04-24T16:28:13.304Z,30.83
2018-04-24T16:30:40.986Z,30.41
2018-04-24T16:33:08.620Z,30.45
2018-04-24T16:35:36.262Z,30.36
2018-04-24T16:38:03.863Z,30.40
2018-04-24T16:40:31.516Z,30.55
2018-04-24T16:42:59.152Z,30.57
2018-04-24T16:45:26.799Z,30.63
2018-04-24T16:47:54.407Z,30.61
2018-04-24T16:50:22.064Z,30.84
2018-04-24T16:52:49.671Z,31.07
2018-04-24T16:56:57.751Z,30.76
2018-04-24T16:59:25.368Z,30.79
2018-04-24T17:01:53.011Z,30.90
2018-04-24T17:04:20.654Z,31.26
2018-04-24T17:06:48.295Z,31.21
2018-04-24T17:09:15.893Z,31.38
2018-04-24T17:11:43.561Z,31.41
2018-04-24T17:14:11.164Z,31.74
2018-04-24T17:16:38.823Z,31.34
2018-04-24T17:19:06.431Z,30.99
2018-04-24T17:21:34.074Z,31.56
2018-04-24T17:24:01.682Z,31.89
2018-04-24T17:26:29.349Z,31.65
2018-04-24T17:28:56.955Z,31.92
2018-04-24T17:31:24.608Z,32.24
2018-04-24T17:33:52.227Z,31.83
2018-04-24T17:36:19.883Z,31.47
2018-04-24T17:38:47.508Z,30.89
2018-04-24T17:41:15.155Z,30.74
2018-04-24T17:43:42.765Z,31.03
2018-04-24T17:46:10.412Z,31.00
2018-04-24T17:48:38.019Z,30.86
2018-04-24T17:51:05.667Z,30.46
2018-04-24T17:53:33.271Z,30.81
2018-04-24T17:56:00.921Z,31.48
2018-04-24T17:58:28.532Z,30.83
2018-04-24T18:00:56.179Z,30.72
2018-04-24T18:03:23.791Z,30.87
2018-04-24T18:05:51.435Z,31.19
2018-04-24T18:08:19.048Z,31.12
2018-04-24T18:10:46.851Z,31.63
2018-04-24T18:13:14.455Z,31.80
2018-04-24T18:15:42.118Z,31.99
2018-04-24T18:18:09.719Z,32.17
2018-04-24T18:20:37.366Z,32.42
2018-04-24T18:23:04.965Z,32.08
2018-04-24T18:25:32.614Z,31.71
2018-04-24T18:28:00.239Z,32.59
2018-04-24T18:30:27.887Z,32.77
2018-04-24T18:32:56.261Z,33.15
2018-04-24T18:35:23.924Z,32.96
2018-04-24T18:37:51.537Z,33.02
2018-04-24T18:40:19.252Z,33.14
2018-04-24T18:42:46.826Z,33.43
2018-04-24T18:45:14.474Z,33.68
2018-04-24T18:47:42.079Z,33.89
2018-04-24T18:50:09.747Z,33.87
2018-04-24T18:52:37.445Z,34.39
2018-04-24T18:55:05.157Z,34.57
2018-04-24T18:57:32.765Z,35.11
2018-04-24T19:00:00.366Z,34.87
2018-04-24T19:02:28.026Z,35.25
2018-04-24T19:04:55.642Z,35.70
2018-04-24T19:07:23.298Z,35.43
2018-04-24T19:09:50.911Z,35.85
2018-04-24T19:12:18.559Z,36.29
2018-04-24T19:14:46.172Z,36.36
2018-04-24T19:17:13.843Z,36.48
2018-04-24T19:19:41.503Z,37.07
2018-04-24T19:22:09.151Z,36.44
2018-04-24T19:24:42.431Z,36.69
2018-04-24T19:27:10.079Z,36.46
2018-04-24T19:29:37.682Z,36.65
2018-04-24T19:32:11.039Z,36.57
2018-04-24T19:34:38.673Z,36.43
2018-04-24T19:37:06.327Z,36.88
2018-04-24T19:39:39.557Z,37.09
2018-04-24T19:42:07.219Z,37.30
2018-04-24T19:44:34.842Z,37.25
2018-04-24T19:47:02.494Z,37.39
2018-04-24T19:49:35.640Z,37.54
2018-04-24T19:52:03.292Z,37.78
2018-04-24T19:54:30.930Z,37.66
2018-04-24T19:56:58.580Z,38.62
2018-04-24T19:59:26.186Z,38.23
2018-04-24T20:01:53.840Z,38.76
2018-04-24T20:04:21.524Z,39.33
2018-04-24T20:06:49.130Z,39.93
2018-04-24T20:09:16.738Z,41.22
2018-04-24T20:11:44.391Z,41.60
2018-04-24T20:14:12.115Z,41.54
2018-04-24T20:16:39.865Z,42.53
2018-04-24T20:19:07.665Z,41.96
2018-04-24T20:21:35.471Z,41.93
2018-04-24T20:24:03.284Z,42.17
2018-04-24T20:26:31.053Z,42.02
2018-04-24T20:28:58.804Z,41.20
2018-04-24T20:31:26.579Z,41.90
2018-04-24T20:33:54.370Z,42.10
2018-04-24T20:36:22.145Z,42.01
2018-04-24T20:38:49.866Z,42.09
2018-04-24T20:41:17.652Z,42.26
2018-04-24T20:43:45.428Z,42.24
2018-04-24T20:46:13.196Z,43.43
2018-04-24T20:48:40.944Z,44.97
2018-04-24T20:51:08.784Z,45.84
2018-04-24T20:53:36.588Z,44.48
2018-04-24T20:56:04.369Z,44.09
2018-04-24T20:58:32.110Z,44.24
2018-04-24T21:00:59.957Z,45.84
2018-04-24T21:03:27.646Z,45.87
2018-04-24T21:05:55.429Z,46.83
2018-04-24T21:08:23.192Z,46.66
2018-04-24T21:10:50.982Z,47.12
2018-04-24T21:13:19.173Z,47.70
2018-04-24T21:15:46.915Z,48.55
2018-04-24T21:18:14.856Z,48.12
2018-04-24T21:20:42.604Z,48.03
2018-04-24T21:23:10.486Z,48.30
2018-04-24T21:25:38.234Z,48.37
2018-04-24T21:28:06.015Z,48.68
2018-04-24T21:30:33.773Z,48.58
2018-04-24T21:33:01.618Z,48.24
2018-04-24T21:35:29.354Z,48.02
2018-04-24T21:37:57.133Z,47.92
2018-04-24T21:40:24.906Z,47.90
2018-04-24T21:42:52.748Z,48.44
2018-04-24T21:45:20.498Z,48.04
2018-04-24T21:47:48.263Z,48.17
2018-04-24T21:50:16.012Z,47.80
2018-04-24T21:52:43.805Z,48.32
2018-04-24T21:55:11.465Z,48.66
2018-04-24T21:57:39.164Z,49.18
2018-04-24T22:00:06.916Z,48.99
2018-04-24T22:02:34.599Z,49.34
2018-04-24T22:05:02.214Z,49.26
2018-04-24T22:07:29.871Z,49.31
2018-04-24T22:09:57.487Z,49.20
2018-04-24T22:12:25.131Z,49.75
2018-04-24T22:14:52.844Z,49.30
2018-04-24T22:17:20.487Z,49.89
2018-04-24T22:19:48.100Z,49.94
2018-04-24T22:22:16.582Z,49.43
2018-04-24T22:24:44.187Z,49.92
2018-04-24T22:27:11.851Z,50.39
2018-04-24T22:29:39.516Z,50.76
2018-04-24T22:32:07.168Z,50.36
2018-04-24T22:34:34.770Z,50.27
2018-04-24T22:37:02.427Z,50.14
2018-04-24T22:39:30.030Z,50.50
2018-04-24T22:41:57.684Z,50.32
2018-04-24T22:44:25.304Z,50.68
2018-04-24T22:46:53.000Z,50.37
2018-04-24T22:49:20.624Z,50.84
2018-04-24T22:51:48.272Z,51.47
2018-04-24T22:54:15.880Z,51.19
2018-04-24T22:56:43.524Z,50.88
2018-04-24T22:59:11.143Z,51.54
2018-04-24T23:01:38.795Z,52.23
2018-04-24T23:04:06.652Z,51.96
2018-04-24T23:06:34.300Z,52.23
2018-04-24T23:09:01.913Z,52.75
2018-04-24T23:11:41.332Z,53.35
2018-04-24T23:14:20.603Z,52.81
2018-04-24T23:16:59.989Z,53.52
2018-04-24T23:19:39.307Z,53.24
2018-04-24T23:22:06.425Z,53.66
2018-04-24T23:24:34.034Z,53.50
2018-04-24T23:27:01.683Z,54.71
2018-04-24T23:29:29.287Z,54.09
2018-04-24T23:31:56.939Z,54.99
2018-04-24T23:34:24.549Z,54.71
2018-04-24T23:36:52.215Z,54.78
2018-04-24T23:39:19.814Z,54.98
2018-04-24T23:41:47.463Z,55.46
2018-04-24T23:44:15.119Z,54.86
2018-04-24T23:46:42.743Z,55.25
2018-04-24T23:49:10.440Z,55.07
2018-04-24T23:51:38.042Z,55.23
2018-04-24T23:54:05.689Z,55.99
2018-04-24T23:56:35.336Z,56.09
2018-04-24T23:59:02.985Z,55.92
